sensor_id;sensor_type;location;lat;lon;timestamp;P1;durP1;ratioP1;P2;durP2;ratioP2
2123;SDS011;1068;52.460;13.528;2022-09-04T00:00:34;3.47;;;1.57;;
2123;SDS011;1068;52.460;13.528;2022-09-04T00:03:11;2.13;;;1.63;;
2123;SDS011;1068;52.460;13.528;2022-09-04T00:05:46;1.97;;;1.83;;
2123;SDS011;1068;52.460;13.528;2022-09-04T00:08:25;4.47;;;1.37;;
2123;SDS011;1068;52.460;13.528;2022-09-04T00:11:07;1.87;;;1.57;;
2123;SDS011;1068;52.460;13.528;2022-09-04T00:13:40;2.30;;;1.60;;
2123;SDS011;1068;52.460;13.528;2022-09-04T00:16:10;3.10;;;1.80;;
2123;SDS011;1068;52.460;13.528;2022-09-04T00:18:45;1.80;;;1.70;;
2123;SDS011;1068;52.460;13.528;2022-09-04T00:21:19;1.60;;;1.50;;
2123;SDS011;1068;52.460;13.528;2022-09-04T00:23:52;2.33;;;1.73;;
2123;SDS011;1068;52.460;13.528;2022-09-04T00:26:32;1.97;;;1.67;;
2123;SDS011;1068;52.460;13.528;2022-09-04T00:29:08;2.37;;;1.33;;
2123;SDS011;1068;52.460;13.528;2022-09-04T00:31:41;1.70;;;1.60;;
2123;SDS011;1068;52.460;13.528;2022-09-04T00:34:14;1.93;;;1.53;;
2123;SDS011;1068;52.460;13.528;2022-09-04T00:36:57;2.47;;;1.53;;
2123;SDS011;1068;52.460;13.528;2022-09-04T00:39:30;2.53;;;1.67;;
2123;SDS011;1068;52.460;13.528;2022-09-04T00:42:04;2.20;;;1.50;;
2123;SDS011;1068;52.460;13.528;2022-09-04T00:44:48;4.33;;;1.70;;
2123;SDS011;1068;52.460;13.528;2022-09-04T00:47:29;4.67;;;1.77;;
2123;SDS011;1068;52.460;13.528;2022-09-04T00:50:19;1.40;;;1.30;;
2123;SDS011;1068;52.460;13.528;2022-09-04T00:53:23;3.80;;;1.40;;
2123;SDS011;1068;52.460;13.528;2022-09-04T00:56:03;2.10;;;1.80;;
2123;SDS011;1068;52.460;13.528;2022-09-04T00:58:54;2.73;;;1.50;;
2123;SDS011;1068;52.460;13.528;2022-09-04T01:01:28;1.43;;;1.33;;
2123;SDS011;1068;52.460;13.528;2022-09-04T01:06:56;5.10;;;1.77;;
2123;SDS011;1068;52.460;13.528;2022-09-04T01:09:37;1.83;;;1.40;;
2123;SDS011;1068;52.460;13.528;2022-09-04T01:12:22;2.97;;;1.83;;
2123;SDS011;1068;52.460;13.528;2022-09-04T01:14:58;1.93;;;1.60;;
2123;SDS011;1068;52.460;13.528;2022-09-04T01:17:39;1.20;;;1.10;;
2123;SDS011;1068;52.460;13.528;2022-09-04T01:20:13;1.40;;;1.30;;
2123;SDS011;1068;52.460;13.528;2022-09-04T01:22:57;1.90;;;1.50;;
2123;SDS011;1068;52.460;13.528;2022-09-04T01:25:47;7.83;;;1.57;;
2123;SDS011;1068;52.460;13.528;2022-09-04T01:28:30;1.63;;;1.53;;
2123;SDS011;1068;52.460;13.528;2022-09-04T01:31:03;2.10;;;1.20;;
2123;SDS011;1068;52.460;13.528;2022-09-04T01:33:35;1.90;;;1.40;;
2123;SDS011;1068;52.460;13.528;2022-09-04T01:36:08;2.90;;;1.30;;
2123;SDS011;1068;52.460;13.528;2022-09-04T01:38:42;1.80;;;1.20;;
2123;SDS011;1068;52.460;13.528;2022-09-04T01:41:17;4.13;;;1.53;;
2123;SDS011;1068;52.460;13.528;2022-09-04T01:43:47;1.43;;;1.20;;
2123;SDS011;1068;52.460;13.528;2022-09-04T01:46:21;1.70;;;1.33;;
2123;SDS011;1068;52.460;13.528;2022-09-04T01:49:10;4.13;;;2.10;;
2123;SDS011;1068;52.460;13.528;2022-09-04T01:51:45;2.30;;;1.27;;
2123;SDS011;1068;52.460;13.528;2022-09-04T01:54:22;1.53;;;1.43;;
2123;SDS011;1068;52.460;13.528;2022-09-04T01:57:07;1.60;;;1.50;;
2123;SDS011;1068;52.460;13.528;2022-09-04T01:59:44;2.30;;;1.30;;
2123;SDS011;1068;52.460;13.528;2022-09-04T02:02:23;2.17;;;1.40;;
2123;SDS011;1068;52.460;13.528;2022-09-04T02:04:57;3.00;;;1.53;;
2123;SDS011;1068;52.460;13.528;2022-09-04T02:07:28;1.43;;;1.33;;
2123;SDS011;1068;52.460;13.528;2022-09-04T02:10:02;1.40;;;1.27;;
2123;SDS011;1068;52.460;13.528;2022-09-04T02:12:41;3.40;;;1.50;;
2123;SDS011;1068;52.460;13.528;2022-09-04T02:15:16;2.00;;;1.30;;
2123;SDS011;1068;52.460;13.528;2022-09-04T02:17:54;2.10;;;1.27;;
2123;SDS011;1068;52.460;13.528;2022-09-04T02:20:27;3.97;;;2.07;;
2123;SDS011;1068;52.460;13.528;2022-09-04T02:22:58;2.07;;;1.40;;
2123;SDS011;1068;52.460;13.528;2022-09-04T02:25:37;3.00;;;1.33;;
2123;SDS011;1068;52.460;13.528;2022-09-04T02:28:16;4.40;;;1.07;;
2123;SDS011;1068;52.460;13.528;2022-09-04T02:30:53;1.40;;;1.27;;
2123;SDS011;1068;52.460;13.528;2022-09-04T02:33:24;4.20;;;1.50;;
2123;SDS011;1068;52.460;13.528;2022-09-04T02:36:03;5.33;;;1.73;;
2123;SDS011;1068;52.460;13.528;2022-09-04T02:38:36;1.57;;;1.27;;
2123;SDS011;1068;52.460;13.528;2022-09-04T02:41:13;3.47;;;1.40;;
2123;SDS011;1068;52.460;13.528;2022-09-04T02:43:50;1.30;;;1.17;;
2123;SDS011;1068;52.460;13.528;2022-09-04T02:46:28;3.00;;;1.40;;
2123;SDS011;1068;52.460;13.528;2022-09-04T02:49:04;4.70;;;1.50;;
2123;SDS011;1068;52.460;13.528;2022-09-04T02:51:48;2.10;;;1.00;;
2123;SDS011;1068;52.460;13.528;2022-09-04T02:54:28;1.33;;;1.20;;
2123;SDS011;1068;52.460;13.528;2022-09-04T02:57:07;1.60;;;1.30;;
2123;SDS011;1068;52.460;13.528;2022-09-04T02:59:49;5.20;;;1.37;;
2123;SDS011;1068;52.460;13.528;2022-09-04T03:02:25;3.23;;;1.30;;
2123;SDS011;1068;52.460;13.528;2022-09-04T03:04:55;2.20;;;1.33;;
2123;SDS011;1068;52.460;13.528;2022-09-04T03:07:30;1.10;;;1.00;;
2123;SDS011;1068;52.460;13.528;2022-09-04T03:10:02;2.03;;;1.23;;
2123;SDS011;1068;52.460;13.528;2022-09-04T03:12:36;2.93;;;1.20;;
2123;SDS011;1068;52.460;13.528;2022-09-04T03:15:13;1.20;;;1.10;;
2123;SDS011;1068;52.460;13.528;2022-09-04T03:17:47;3.60;;;1.33;;
2123;SDS011;1068;52.460;13.528;2022-09-04T03:20:22;2.43;;;1.30;;
2123;SDS011;1068;52.460;13.528;2022-09-04T03:22:52;1.97;;;1.30;;
2123;SDS011;1068;52.460;13.528;2022-09-04T03:25:40;1.40;;;1.20;;
2123;SDS011;1068;52.460;13.528;2022-09-04T03:28:17;4.27;;;1.37;;
2123;SDS011;1068;52.460;13.528;2022-09-04T03:30:51;1.20;;;1.10;;
2123;SDS011;1068;52.460;13.528;2022-09-04T03:33:23;1.20;;;1.10;;
2123;SDS011;1068;52.460;13.528;2022-09-04T03:35:57;1.20;;;1.10;;
2123;SDS011;1068;52.460;13.528;2022-09-04T03:38:36;1.10;;;1.00;;
2123;SDS011;1068;52.460;13.528;2022-09-04T03:41:15;1.40;;;1.10;;
2123;SDS011;1068;52.460;13.528;2022-09-04T03:43:52;2.07;;;1.17;;
2123;SDS011;1068;52.460;13.528;2022-09-04T03:46:35;2.30;;;1.30;;
2123;SDS011;1068;52.460;13.528;2022-09-04T03:49:11;1.40;;;1.30;;
2123;SDS011;1068;52.460;13.528;2022-09-04T03:51:48;1.63;;;1.53;;
2123;SDS011;1068;52.460;13.528;2022-09-04T03:54:37;0.90;;;0.90;;
2123;SDS011;1068;52.460;13.528;2022-09-04T03:57:25;1.63;;;0.90;;
2123;SDS011;1068;52.460;13.528;2022-09-04T04:00:03;2.27;;;1.20;;
2123;SDS011;1068;52.460;13.528;2022-09-04T04:02:38;1.30;;;1.20;;
2123;SDS011;1068;52.460;13.528;2022-09-04T04:05:23;4.53;;;1.30;;
2123;SDS011;1068;52.460;13.528;2022-09-04T04:07:58;2.13;;;1.50;;
2123;SDS011;1068;52.460;13.528;2022-09-04T04:10:47;3.63;;;1.47;;
2123;SDS011;1068;52.460;13.528;2022-09-04T04:13:25;1.40;;;1.30;;
2123;SDS011;1068;52.460;13.528;2022-09-04T04:16:18;2.23;;;1.43;;
2123;SDS011;1068;52.460;13.528;2022-09-04T04:19:01;1.83;;;1.20;;
2123;SDS011;1068;52.460;13.528;2022-09-04T04:21:47;1.80;;;1.17;;
2123;SDS011;1068;52.460;13.528;2022-09-04T04:24:29;1.23;;;1.10;;
2123;SDS011;1068;52.460;13.528;2022-09-04T04:27:09;1.50;;;1.40;;
2123;SDS011;1068;52.460;13.528;2022-09-04T04:29:43;2.03;;;1.20;;
2123;SDS011;1068;52.460;13.528;2022-09-04T04:32:30;1.93;;;1.00;;
2123;SDS011;1068;52.460;13.528;2022-09-04T04:35:10;1.13;;;1.03;;
2123;SDS011;1068;52.460;13.528;2022-09-04T04:37:47;1.40;;;1.30;;
2123;SDS011;1068;52.460;13.528;2022-09-04T04:40:27;1.40;;;1.10;;
2123;SDS011;1068;52.460;13.528;2022-09-04T04:43:00;1.10;;;1.00;;
2123;SDS011;1068;52.460;13.528;2022-09-04T04:45:36;1.30;;;1.20;;
2123;SDS011;1068;52.460;13.528;2022-09-04T04:48:20;1.47;;;1.37;;
2123;SDS011;1068;52.460;13.528;2022-09-04T04:51:14;1.47;;;0.97;;
2123;SDS011;1068;52.460;13.528;2022-09-04T04:53:52;1.57;;;1.17;;
2123;SDS011;1068;52.460;13.528;2022-09-04T04:56:24;1.10;;;1.00;;
2123;SDS011;1068;52.460;13.528;2022-09-04T04:58:59;1.40;;;1.20;;
2123;SDS011;1068;52.460;13.528;2022-09-04T05:01:47;1.30;;;1.20;;
2123;SDS011;1068;52.460;13.528;2022-09-04T05:04:21;1.93;;;1.20;;
2123;SDS011;1068;52.460;13.528;2022-09-04T05:06:57;1.30;;;1.20;;
2123;SDS011;1068;52.460;13.528;2022-09-04T05:09:31;1.10;;;1.00;;
2123;SDS011;1068;52.460;13.528;2022-09-04T05:12:02;2.30;;;1.60;;
2123;SDS011;1068;52.460;13.528;2022-09-04T05:14:38;1.43;;;1.10;;
2123;SDS011;1068;52.460;13.528;2022-09-04T05:17:14;1.50;;;1.23;;
2123;SDS011;1068;52.460;13.528;2022-09-04T05:19:49;1.17;;;1.07;;
2123;SDS011;1068;52.460;13.528;2022-09-04T05:22:23;4.50;;;1.20;;
2123;SDS011;1068;52.460;13.528;2022-09-04T05:24:58;1.40;;;1.17;;
2123;SDS011;1068;52.460;13.528;2022-09-04T05:27:38;1.90;;;1.40;;
2123;SDS011;1068;52.460;13.528;2022-09-04T05:30:14;1.40;;;1.03;;
2123;SDS011;1068;52.460;13.528;2022-09-04T05:32:46;1.40;;;1.30;;
2123;SDS011;1068;52.460;13.528;2022-09-04T05:35:21;1.20;;;1.10;;
2123;SDS011;1068;52.460;13.528;2022-09-04T05:37:57;2.33;;;1.50;;
2123;SDS011;1068;52.460;13.528;2022-09-04T05:40:30;1.30;;;1.20;;
2123;SDS011;1068;52.460;13.528;2022-09-04T05:43:05;1.40;;;1.30;;
2123;SDS011;1068;52.460;13.528;2022-09-04T05:45:47;1.37;;;1.27;;
2123;SDS011;1068;52.460;13.528;2022-09-04T05:48:20;1.67;;;1.20;;
2123;SDS011;1068;52.460;13.528;2022-09-04T05:50:56;1.43;;;1.23;;
2123;SDS011;1068;52.460;13.528;2022-09-04T05:53:42;1.40;;;1.30;;
2123;SDS011;1068;52.460;13.528;2022-09-04T05:56:29;1.20;;;1.10;;
2123;SDS011;1068;52.460;13.528;2022-09-04T05:59:34;2.27;;;1.57;;
2123;SDS011;1068;52.460;13.528;2022-09-04T06:05:12;1.80;;;1.30;;
2123;SDS011;1068;52.460;13.528;2022-09-04T06:07:51;1.20;;;1.10;;
2123;SDS011;1068;52.460;13.528;2022-09-04T06:10:25;1.80;;;1.60;;
2123;SDS011;1068;52.460;13.528;2022-09-04T06:16:02;1.27;;;1.13;;
2123;SDS011;1068;52.460;13.528;2022-09-04T06:18:46;1.40;;;1.10;;
2123;SDS011;1068;52.460;13.528;2022-09-04T06:24:26;1.30;;;1.10;;
2123;SDS011;1068;52.460;13.528;2022-09-04T06:27:05;4.03;;;1.40;;
2123;SDS011;1068;52.460;13.528;2022-09-04T06:29:52;1.43;;;1.27;;
2123;SDS011;1068;52.460;13.528;2022-09-04T06:32:41;1.80;;;1.57;;
2123;SDS011;1068;52.460;13.528;2022-09-04T06:35:24;1.50;;;1.40;;
2123;SDS011;1068;52.460;13.528;2022-09-04T06:38:06;1.63;;;1.53;;
2123;SDS011;1068;52.460;13.528;2022-09-04T06:40:49;3.10;;;1.83;;
2123;SDS011;1068;52.460;13.528;2022-09-04T06:43:35;1.93;;;1.83;;
2123;SDS011;1068;52.460;13.528;2022-09-04T06:46:11;1.50;;;1.33;;
2123;SDS011;1068;52.460;13.528;2022-09-04T06:48:49;1.60;;;1.50;;
2123;SDS011;1068;52.460;13.528;2022-09-04T06:51:24;1.33;;;1.23;;
2123;SDS011;1068;52.460;13.528;2022-09-04T06:54:03;3.00;;;1.60;;
2123;SDS011;1068;52.460;13.528;2022-09-04T06:56:44;1.50;;;1.40;;
2123;SDS011;1068;52.460;13.528;2022-09-04T06:59:34;1.60;;;1.50;;
2123;SDS011;1068;52.460;13.528;2022-09-04T07:02:13;2.70;;;1.90;;
2123;SDS011;1068;52.460;13.528;2022-09-04T07:04:52;2.67;;;1.63;;
2123;SDS011;1068;52.460;13.528;2022-09-04T07:07:28;3.00;;;2.00;;
2123;SDS011;1068;52.460;13.528;2022-09-04T07:10:02;2.30;;;1.83;;
2123;SDS011;1068;52.460;13.528;2022-09-04T07:12:41;2.77;;;2.30;;
2123;SDS011;1068;52.460;13.528;2022-09-04T07:15:25;1.70;;;1.60;;
2123;SDS011;1068;52.460;13.528;2022-09-04T07:18:11;5.30;;;1.90;;
2123;SDS011;1068;52.460;13.528;2022-09-04T07:20:54;2.90;;;2.10;;
2123;SDS011;1068;52.460;13.528;2022-09-04T07:23:28;1.60;;;1.50;;
2123;SDS011;1068;52.460;13.528;2022-09-04T07:26:05;2.20;;;2.10;;
2123;SDS011;1068;52.460;13.528;2022-09-04T07:28:45;2.80;;;2.20;;
2123;SDS011;1068;52.460;13.528;2022-09-04T07:31:27;3.20;;;2.00;;
2123;SDS011;1068;52.460;13.528;2022-09-04T07:33:57;2.40;;;2.07;;
2123;SDS011;1068;52.460;13.528;2022-09-04T07:36:30;2.20;;;2.00;;
2123;SDS011;1068;52.460;13.528;2022-09-04T07:39:04;2.53;;;2.10;;
2123;SDS011;1068;52.460;13.528;2022-09-04T07:41:40;4.17;;;2.40;;
2123;SDS011;1068;52.460;13.528;2022-09-04T07:44:12;2.87;;;2.33;;
2123;SDS011;1068;52.460;13.528;2022-09-04T07:46:45;4.77;;;2.50;;
2123;SDS011;1068;52.460;13.528;2022-09-04T07:49:17;2.90;;;2.53;;
2123;SDS011;1068;52.460;13.528;2022-09-04T07:51:50;2.40;;;2.20;;
2123;SDS011;1068;52.460;13.528;2022-09-04T07:57:16;4.73;;;2.43;;
2123;SDS011;1068;52.460;13.528;2022-09-04T08:00:05;3.60;;;2.23;;
2123;SDS011;1068;52.460;13.528;2022-09-04T08:02:42;2.43;;;2.30;;
2123;SDS011;1068;52.460;13.528;2022-09-04T08:05:23;2.50;;;2.30;;
2123;SDS011;1068;52.460;13.528;2022-09-04T08:08:02;6.83;;;2.50;;
2123;SDS011;1068;52.460;13.528;2022-09-04T08:10:55;2.83;;;2.63;;
2123;SDS011;1068;52.460;13.528;2022-09-04T08:16:42;2.60;;;2.40;;
2123;SDS011;1068;52.460;13.528;2022-09-04T08:19:27;3.10;;;2.80;;
2123;SDS011;1068;52.460;13.528;2022-09-04T08:22:06;2.43;;;2.20;;
2123;SDS011;1068;52.460;13.528;2022-09-04T08:27:45;2.27;;;2.17;;
2123;SDS011;1068;52.460;13.528;2022-09-04T08:30:23;2.50;;;2.30;;
2123;SDS011;1068;52.460;13.528;2022-09-04T08:35:51;2.80;;;2.53;;
2123;SDS011;1068;52.460;13.528;2022-09-04T08:38:36;3.20;;;2.67;;
2123;SDS011;1068;52.460;13.528;2022-09-04T08:47:25;2.60;;;2.40;;
2123;SDS011;1068;52.460;13.528;2022-09-04T08:50:27;2.60;;;2.40;;
2123;SDS011;1068;52.460;13.528;2022-09-04T08:56:04;3.10;;;2.67;;
2123;SDS011;1068;52.460;13.528;2022-09-04T09:05:01;2.70;;;2.50;;
2123;SDS011;1068;52.460;13.528;2022-09-04T09:08:10;2.13;;;1.80;;
2123;SDS011;1068;52.460;13.528;2022-09-04T09:10:53;2.23;;;1.90;;
2123;SDS011;1068;52.460;13.528;2022-09-04T09:13:37;3.00;;;2.53;;
2123;SDS011;1068;52.460;13.528;2022-09-04T09:16:17;3.00;;;1.97;;
2123;SDS011;1068;52.460;13.528;2022-09-04T09:18:52;1.93;;;1.83;;
2123;SDS011;1068;52.460;13.528;2022-09-04T09:21:36;2.57;;;2.40;;
2123;SDS011;1068;52.460;13.528;2022-09-04T09:24:14;4.93;;;2.77;;
2123;SDS011;1068;52.460;13.528;2022-09-04T09:27:13;2.00;;;1.87;;
2123;SDS011;1068;52.460;13.528;2022-09-04T09:30:05;1.97;;;1.80;;
2123;SDS011;1068;52.460;13.528;2022-09-04T09:32:48;1.80;;;1.70;;
2123;SDS011;1068;52.460;13.528;2022-09-04T09:35:47;5.40;;;2.00;;
2123;SDS011;1068;52.460;13.528;2022-09-04T09:38:56;2.43;;;2.23;;
2123;SDS011;1068;52.460;13.528;2022-09-04T09:41:51;2.07;;;1.87;;
2123;SDS011;1068;52.460;13.528;2022-09-04T09:47:48;2.80;;;2.20;;
2123;SDS011;1068;52.460;13.528;2022-09-04T09:50:38;2.43;;;1.50;;
2123;SDS011;1068;52.460;13.528;2022-09-04T09:56:56;2.00;;;1.80;;
2123;SDS011;1068;52.460;13.528;2022-09-04T10:00:04;2.87;;;2.17;;
2123;SDS011;1068;52.460;13.528;2022-09-04T10:02:41;2.10;;;2.00;;
2123;SDS011;1068;52.460;13.528;2022-09-04T10:05:31;3.03;;;2.03;;
2123;SDS011;1068;52.460;13.528;2022-09-04T10:08:20;2.30;;;2.10;;
2123;SDS011;1068;52.460;13.528;2022-09-04T10:11:20;3.40;;;2.23;;
2123;SDS011;1068;52.460;13.528;2022-09-04T10:17:40;2.67;;;1.93;;
2123;SDS011;1068;52.460;13.528;2022-09-04T10:23:24;1.90;;;1.80;;
2123;SDS011;1068;52.460;13.528;2022-09-04T10:26:02;3.27;;;1.63;;
2123;SDS011;1068;52.460;13.528;2022-09-04T10:29:10;2.00;;;1.90;;
2123;SDS011;1068;52.460;13.528;2022-09-04T10:31:55;3.57;;;2.63;;
2123;SDS011;1068;52.460;13.528;2022-09-04T10:34:46;3.17;;;2.00;;
2123;SDS011;1068;52.460;13.528;2022-09-04T10:37:30;5.60;;;2.43;;
2123;SDS011;1068;52.460;13.528;2022-09-04T10:40:15;2.30;;;2.20;;
2123;SDS011;1068;52.460;13.528;2022-09-04T10:43:07;2.10;;;2.00;;
2123;SDS011;1068;52.460;13.528;2022-09-04T10:45:46;7.83;;;2.57;;
2123;SDS011;1068;52.460;13.528;2022-09-04T10:48:35;1.73;;;1.63;;
2123;SDS011;1068;52.460;13.528;2022-09-04T10:54:29;3.47;;;2.23;;
2123;SDS011;1068;52.460;13.528;2022-09-04T10:57:12;2.50;;;2.30;;
2123;SDS011;1068;52.460;13.528;2022-09-04T10:59:52;7.57;;;2.20;;
2123;SDS011;1068;52.460;13.528;2022-09-04T11:02:49;1.80;;;1.70;;
2123;SDS011;1068;52.460;13.528;2022-09-04T11:05:47;2.20;;;2.10;;
2123;SDS011;1068;52.460;13.528;2022-09-04T11:08:39;2.23;;;2.03;;
2123;SDS011;1068;52.460;13.528;2022-09-04T11:11:26;2.27;;;2.07;;
2123;SDS011;1068;52.460;13.528;2022-09-04T11:19:57;2.47;;;2.30;;
2123;SDS011;1068;52.460;13.528;2022-09-04T11:29:03;1.53;;;1.43;;
2123;SDS011;1068;52.460;13.528;2022-09-04T11:31:46;1.80;;;1.70;;
2123;SDS011;1068;52.460;13.528;2022-09-04T11:34:55;2.17;;;1.63;;
2123;SDS011;1068;52.460;13.528;2022-09-04T11:37:42;1.60;;;1.50;;
2123;SDS011;1068;52.460;13.528;2022-09-04T11:40:34;2.73;;;2.03;;
2123;SDS011;1068;52.460;13.528;2022-09-04T11:43:28;1.90;;;1.80;;
2123;SDS011;1068;52.460;13.528;2022-09-04T11:46:13;1.90;;;1.80;;
2123;SDS011;1068;52.460;13.528;2022-09-04T11:49:02;2.43;;;1.90;;
2123;SDS011;1068;52.460;13.528;2022-09-04T11:51:50;3.00;;;1.63;;
2123;SDS011;1068;52.460;13.528;2022-09-04T11:54:51;2.23;;;2.07;;
2123;SDS011;1068;52.460;13.528;2022-09-04T11:57:33;2.43;;;2.10;;
2123;SDS011;1068;52.460;13.528;2022-09-04T12:00:10;1.70;;;1.60;;
2123;SDS011;1068;52.460;13.528;2022-09-04T12:05:54;2.20;;;2.00;;
2123;SDS011;1068;52.460;13.528;2022-09-04T12:08:34;1.83;;;1.70;;
2123;SDS011;1068;52.460;13.528;2022-09-04T12:11:29;1.70;;;1.57;;
2123;SDS011;1068;52.460;13.528;2022-09-04T12:14:21;1.77;;;1.67;;
2123;SDS011;1068;52.460;13.528;2022-09-04T12:26:01;1.70;;;1.60;;
2123;SDS011;1068;52.460;13.528;2022-09-04T12:28:58;2.07;;;1.97;;
2123;SDS011;1068;52.460;13.528;2022-09-04T12:31:49;2.00;;;1.90;;
2123;SDS011;1068;52.460;13.528;2022-09-04T12:34:42;2.23;;;2.03;;
2123;SDS011;1068;52.460;13.528;2022-09-04T12:37:33;2.77;;;2.23;;
2123;SDS011;1068;52.460;13.528;2022-09-04T12:40:32;3.63;;;1.90;;
2123;SDS011;1068;52.460;13.528;2022-09-04T12:43:08;2.00;;;1.90;;
2123;SDS011;1068;52.460;13.528;2022-09-04T12:45:46;1.97;;;1.77;;
2123;SDS011;1068;52.460;13.528;2022-09-04T12:48:22;5.50;;;1.77;;
2123;SDS011;1068;52.460;13.528;2022-09-04T12:51:00;1.70;;;1.60;;
2123;SDS011;1068;52.460;13.528;2022-09-04T12:56:43;2.33;;;1.87;;
2123;SDS011;1068;52.460;13.528;2022-09-04T12:59:17;1.87;;;1.70;;
2123;SDS011;1068;52.460;13.528;2022-09-04T13:01:56;1.93;;;1.83;;
2123;SDS011;1068;52.460;13.528;2022-09-04T13:04:29;1.83;;;1.73;;
2123;SDS011;1068;52.460;13.528;2022-09-04T13:07:08;1.90;;;1.80;;
2123;SDS011;1068;52.460;13.528;2022-09-04T13:09:47;2.97;;;1.80;;
2123;SDS011;1068;52.460;13.528;2022-09-04T13:12:23;1.80;;;1.70;;
2123;SDS011;1068;52.460;13.528;2022-09-04T13:15:02;2.07;;;1.87;;
2123;SDS011;1068;52.460;13.528;2022-09-04T13:17:50;1.80;;;1.57;;
2123;SDS011;1068;52.460;13.528;2022-09-04T13:20:25;3.47;;;1.70;;
2123;SDS011;1068;52.460;13.528;2022-09-04T13:23:04;2.97;;;1.80;;
2123;SDS011;1068;52.460;13.528;2022-09-04T13:25:44;2.00;;;1.90;;
2123;SDS011;1068;52.460;13.528;2022-09-04T13:28:26;2.00;;;1.90;;
2123;SDS011;1068;52.460;13.528;2022-09-04T13:31:20;3.33;;;1.90;;
2123;SDS011;1068;52.460;13.528;2022-09-04T13:34:10;2.23;;;1.80;;
2123;SDS011;1068;52.460;13.528;2022-09-04T13:36:47;5.73;;;2.00;;
2123;SDS011;1068;52.460;13.528;2022-09-04T13:39:28;2.43;;;2.23;;
2123;SDS011;1068;52.460;13.528;2022-09-04T13:42:13;2.40;;;1.83;;
2123;SDS011;1068;52.460;13.528;2022-09-04T13:44:53;2.63;;;1.93;;
2123;SDS011;1068;52.460;13.528;2022-09-04T13:47:26;1.80;;;1.70;;
2123;SDS011;1068;52.460;13.528;2022-09-04T13:49:57;2.17;;;1.73;;
2123;SDS011;1068;52.460;13.528;2022-09-04T13:52:33;1.60;;;1.50;;
2123;SDS011;1068;52.460;13.528;2022-09-04T13:55:06;2.10;;;2.00;;
2123;SDS011;1068;52.460;13.528;2022-09-04T13:57:38;4.80;;;2.00;;
2123;SDS011;1068;52.460;13.528;2022-09-04T14:00:11;2.53;;;1.67;;
2123;SDS011;1068;52.460;13.528;2022-09-04T14:02:40;2.43;;;2.23;;
2123;SDS011;1068;52.460;13.528;2022-09-04T14:05:09;2.73;;;2.33;;
2123;SDS011;1068;52.460;13.528;2022-09-04T14:07:39;3.63;;;3.40;;
2123;SDS011;1068;52.460;13.528;2022-09-04T14:10:11;2.10;;;1.93;;
2123;SDS011;1068;52.460;13.528;2022-09-04T14:12:41;2.20;;;2.10;;
2123;SDS011;1068;52.460;13.528;2022-09-04T14:18:27;2.00;;;1.90;;
2123;SDS011;1068;52.460;13.528;2022-09-04T14:21:05;2.00;;;1.80;;
2123;SDS011;1068;52.460;13.528;2022-09-04T14:23:38;2.80;;;1.97;;
2123;SDS011;1068;52.460;13.528;2022-09-04T14:26:15;1.97;;;1.87;;
2123;SDS011;1068;52.460;13.528;2022-09-04T14:28:52;2.23;;;1.80;;
2123;SDS011;1068;52.460;13.528;2022-09-04T14:31:25;2.40;;;2.20;;
2123;SDS011;1068;52.460;13.528;2022-09-04T14:34:00;3.87;;;1.90;;
2123;SDS011;1068;52.460;13.528;2022-09-04T14:36:39;1.83;;;1.73;;
2123;SDS011;1068;52.460;13.528;2022-09-04T14:39:21;2.20;;;1.50;;
2123;SDS011;1068;52.460;13.528;2022-09-04T14:42:02;2.13;;;1.80;;
2123;SDS011;1068;52.460;13.528;2022-09-04T14:44:46;2.37;;;1.90;;
2123;SDS011;1068;52.460;13.528;2022-09-04T14:47:26;1.97;;;1.87;;
2123;SDS011;1068;52.460;13.528;2022-09-04T14:50:01;1.70;;;1.60;;
2123;SDS011;1068;52.460;13.528;2022-09-04T14:52:37;3.10;;;2.40;;
2123;SDS011;1068;52.460;13.528;2022-09-04T14:55:06;4.60;;;1.90;;
2123;SDS011;1068;52.460;13.528;2022-09-04T14:57:41;1.80;;;1.70;;
2123;SDS011;1068;52.460;13.528;2022-09-04T15:00:14;1.70;;;1.60;;
2123;SDS011;1068;52.460;13.528;2022-09-04T15:02:44;1.90;;;1.80;;
2123;SDS011;1068;52.460;13.528;2022-09-04T15:05:17;2.33;;;1.80;;
2123;SDS011;1068;52.460;13.528;2022-09-04T15:07:57;2.80;;;1.60;;
2123;SDS011;1068;52.460;13.528;2022-09-04T15:10:27;2.30;;;2.10;;
2123;SDS011;1068;52.460;13.528;2022-09-04T15:13:17;2.50;;;1.60;;
2123;SDS011;1068;52.460;13.528;2022-09-04T15:15:58;2.40;;;2.23;;
2123;SDS011;1068;52.460;13.528;2022-09-04T15:18:41;2.03;;;1.60;;
2123;SDS011;1068;52.460;13.528;2022-09-04T15:21:18;2.33;;;2.00;;
2123;SDS011;1068;52.460;13.528;2022-09-04T15:23:50;1.83;;;1.50;;
2123;SDS011;1068;52.460;13.528;2022-09-04T15:26:26;2.97;;;1.67;;
2123;SDS011;1068;52.460;13.528;2022-09-04T15:29:00;2.07;;;1.63;;
2123;SDS011;1068;52.460;13.528;2022-09-04T15:31:32;2.13;;;2.03;;
2123;SDS011;1068;52.460;13.528;2022-09-04T15:34:02;1.90;;;1.70;;
2123;SDS011;1068;52.460;13.528;2022-09-04T15:36:31;2.23;;;1.90;;
2123;SDS011;1068;52.460;13.528;2022-09-04T15:39:00;1.70;;;1.60;;
2123;SDS011;1068;52.460;13.528;2022-09-04T15:41:33;1.97;;;1.80;;
2123;SDS011;1068;52.460;13.528;2022-09-04T15:44:09;2.40;;;2.20;;
2123;SDS011;1068;52.460;13.528;2022-09-04T15:46:42;2.67;;;2.10;;
2123;SDS011;1068;52.460;13.528;2022-09-04T15:49:18;2.80;;;1.70;;
2123;SDS011;1068;52.460;13.528;2022-09-04T15:51:51;1.87;;;1.60;;
2123;SDS011;1068;52.460;13.528;2022-09-04T15:54:23;1.70;;;1.60;;
2123;SDS011;1068;52.460;13.528;2022-09-04T15:57:01;1.70;;;1.60;;
2123;SDS011;1068;52.460;13.528;2022-09-04T15:59:45;1.67;;;1.57;;
2123;SDS011;1068;52.460;13.528;2022-09-04T16:02:20;2.43;;;1.80;;
2123;SDS011;1068;52.460;13.528;2022-09-04T16:05:01;5.40;;;2.60;;
2123;SDS011;1068;52.460;13.528;2022-09-04T16:07:37;1.97;;;1.83;;
2123;SDS011;1068;52.460;13.528;2022-09-04T16:10:14;1.80;;;1.60;;
2123;SDS011;1068;52.460;13.528;2022-09-04T16:12:50;1.90;;;1.80;;
2123;SDS011;1068;52.460;13.528;2022-09-04T16:15:23;2.77;;;1.80;;
2123;SDS011;1068;52.460;13.528;2022-09-04T16:17:54;1.70;;;1.60;;
2123;SDS011;1068;52.460;13.528;2022-09-04T16:20:25;1.60;;;1.50;;
2123;SDS011;1068;52.460;13.528;2022-09-04T16:22:59;2.10;;;1.60;;
2123;SDS011;1068;52.460;13.528;2022-09-04T16:25:32;2.00;;;1.80;;
2123;SDS011;1068;52.460;13.528;2022-09-04T16:28:03;1.87;;;1.77;;
2123;SDS011;1068;52.460;13.528;2022-09-04T16:30:37;3.80;;;1.90;;
2123;SDS011;1068;52.460;13.528;2022-09-04T16:33:07;4.20;;;2.17;;
2123;SDS011;1068;52.460;13.528;2022-09-04T16:35:49;1.90;;;1.80;;
2123;SDS011;1068;52.460;13.528;2022-09-04T16:38:18;1.63;;;1.53;;
2123;SDS011;1068;52.460;13.528;2022-09-04T16:40:50;1.90;;;1.80;;
2123;SDS011;1068;52.460;13.528;2022-09-04T16:43:22;1.93;;;1.83;;
2123;SDS011;1068;52.460;13.528;2022-09-04T16:46:01;1.63;;;1.50;;
2123;SDS011;1068;52.460;13.528;2022-09-04T16:48:34;1.73;;;1.63;;
2123;SDS011;1068;52.460;13.528;2022-09-04T16:51:08;2.53;;;1.80;;
2123;SDS011;1068;52.460;13.528;2022-09-04T16:53:38;2.90;;;2.23;;
2123;SDS011;1068;52.460;13.528;2022-09-04T16:56:09;2.93;;;1.90;;
2123;SDS011;1068;52.460;13.528;2022-09-04T16:58:44;4.77;;;2.10;;
2123;SDS011;1068;52.460;13.528;2022-09-04T17:01:20;2.47;;;2.27;;
2123;SDS011;1068;52.460;13.528;2022-09-04T17:03:56;4.93;;;2.20;;
2123;SDS011;1068;52.460;13.528;2022-09-04T17:06:52;7.80;;;2.27;;
2123;SDS011;1068;52.460;13.528;2022-09-04T17:09:29;2.27;;;1.90;;
2123;SDS011;1068;52.460;13.528;2022-09-04T17:12:03;2.23;;;2.03;;
2123;SDS011;1068;52.460;13.528;2022-09-04T17:14:43;1.70;;;1.60;;
2123;SDS011;1068;52.460;13.528;2022-09-04T17:17:17;1.93;;;1.60;;
2123;SDS011;1068;52.460;13.528;2022-09-04T17:19:48;2.67;;;1.73;;
2123;SDS011;1068;52.460;13.528;2022-09-04T17:22:25;2.60;;;1.80;;
2123;SDS011;1068;52.460;13.528;2022-09-04T17:25:11;2.10;;;2.00;;
2123;SDS011;1068;52.460;13.528;2022-09-04T17:27:45;3.20;;;2.03;;
2123;SDS011;1068;52.460;13.528;2022-09-04T17:30:22;3.57;;;2.30;;
2123;SDS011;1068;52.460;13.528;2022-09-04T17:32:57;1.90;;;1.80;;
2123;SDS011;1068;52.460;13.528;2022-09-04T17:35:29;1.70;;;1.60;;
2123;SDS011;1068;52.460;13.528;2022-09-04T17:38:02;2.93;;;2.57;;
2123;SDS011;1068;52.460;13.528;2022-09-04T17:40:35;1.90;;;1.80;;